createdAt,value
2019-01-10T00:00:20.011Z,101901.72
2019-01-10T00:01:21.845Z,101903.53
2019-01-10T00:02:23.008Z,101907.08
2019-01-10T00:03:24.186Z,101901.36
2019-01-10T00:04:25.327Z,101906.22
2019-01-10T00:05:26.439Z,101903.17
2019-01-10T00:06:27.668Z,101906.22
2019-01-10T00:07:28.790Z,101898.68
2019-01-10T00:08:29.951Z,101897.81
2019-01-10T00:09:31.078Z,101896.47
2019-01-10T00:10:32.209Z,101898.32
2019-01-10T00:11:33.336Z,101896.98
2019-01-10T00:12:39.436Z,101905.49
2019-01-10T00:13:37.680Z,101899.30
2019-01-10T00:14:38.863Z,101896.36
2019-01-10T00:15:40.108Z,101901.11
2019-01-10T00:16:41.251Z,101898.90
2019-01-10T00:17:42.370Z,101893.17
2019-01-10T00:18:44.563Z,101891.73
2019-01-10T00:19:45.734Z,101894.87
2019-01-10T00:20:46.858Z,101894.87
2019-01-10T00:21:47.999Z,101891.36
2019-01-10T00:22:49.275Z,101890.86
2019-01-10T00:23:50.446Z,101893.06
2019-01-10T00:24:51.619Z,101890.02
2019-01-10T00:25:52.763Z,101885.03
2019-01-10T00:26:53.886Z,101891.36
2019-01-10T00:27:55.030Z,101891.00
2019-01-10T00:28:56.314Z,101885.28
2019-01-10T00:29:57.463Z,101889.66
2019-01-10T00:30:58.583Z,101886.63
2019-01-10T00:31:59.746Z,101888.44
2019-01-10T00:33:00.887Z,101885.28
2019-01-10T00:34:02.118Z,101883.58
2019-01-10T00:35:05.142Z,101882.23
2019-01-10T00:36:06.287Z,101881.37
2019-01-10T00:37:07.458Z,101883.22
2019-01-10T00:38:08.592Z,101884.05
2019-01-10T00:39:09.738Z,101872.86
2019-01-10T00:40:14.001Z,101874.67
2019-01-10T00:41:15.126Z,101877.35
2019-01-10T00:42:16.250Z,101868.95
2019-01-10T00:43:17.382Z,101876.52
2019-01-10T00:44:18.506Z,101871.16
2019-01-10T00:45:19.769Z,101873.84
2019-01-10T00:46:20.908Z,101875.17
2019-01-10T00:47:22.182Z,101872.97
2019-01-10T00:48:23.327Z,101868.11
2019-01-10T00:49:24.451Z,101874.45
2019-01-10T00:50:25.603Z,101870.07
2019-01-10T00:51:26.722Z,101874.09
2019-01-10T00:52:27.858Z,101881.16
2019-01-10T00:53:29.000Z,101878.11
2019-01-10T00:54:30.148Z,101876.77
2019-01-10T00:55:31.298Z,101877.24
2019-01-10T00:56:32.444Z,101875.06
2019-01-10T00:57:33.665Z,101875.54
2019-01-10T00:58:34.811Z,101883.22
2019-01-10T00:59:35.951Z,101874.70
2019-01-10T01:00:37.279Z,101875.32
2019-01-10T01:01:38.504Z,101873.98
2019-01-10T01:02:39.640Z,101876.30
2019-01-10T01:03:40.760Z,101870.07
2019-01-10T01:04:41.897Z,101874.59
2019-01-10T01:05:43.141Z,101868.38
2019-01-10T01:06:44.267Z,101875.21
2019-01-10T01:07:45.397Z,101873.87
2019-01-10T01:08:46.651Z,101876.55
2019-01-10T01:09:47.774Z,101873.36
2019-01-10T01:10:48.941Z,101875.32
2019-01-10T01:11:50.084Z,101872.17
2019-01-10T01:12:58.275Z,101875.83
2019-01-10T01:13:54.577Z,101871.81
2019-01-10T01:14:55.714Z,101867.42
2019-01-10T01:15:56.967Z,101868.77
2019-01-10T01:16:58.106Z,101862.90
2019-01-10T01:17:59.233Z,101866.09
2019-01-10T01:19:00.472Z,101862.06
2019-01-10T01:20:02.016Z,101868.27
2019-01-10T01:21:03.246Z,101866.56
2019-01-10T01:22:04.506Z,101867.90
2019-01-10T01:23:05.638Z,101866.09
2019-01-10T01:24:06.787Z,101869.75
2019-01-10T01:25:09.711Z,101867.42
2019-01-10T01:26:10.849Z,101868.77
2019-01-10T01:27:11.969Z,101867.79
2019-01-10T01:28:13.186Z,101867.28
2019-01-10T01:29:14.432Z,101865.11
2019-01-10T01:30:17.468Z,101861.45
2019-01-10T01:31:18.746Z,101865.84
2019-01-10T01:32:19.886Z,101861.92
2019-01-10T01:33:21.036Z,101860.47
2019-01-10T01:34:22.170Z,101856.92
2019-01-10T01:35:23.296Z,101864.49
2019-01-10T01:36:24.439Z,101852.08
2019-01-10T01:37:25.577Z,101857.80
2019-01-10T01:38:26.775Z,101854.39
2019-01-10T01:39:27.917Z,101857.07
2019-01-10T01:40:29.041Z,101854.25
2019-01-10T01:41:30.402Z,101856.70
2019-01-10T01:42:31.527Z,101857.55
2019-01-10T01:43:32.650Z,101852.19
2019-01-10T01:44:33.790Z,101847.33
2019-01-10T01:45:35.025Z,101852.69
2019-01-10T01:46:36.185Z,101847.44
2019-01-10T01:47:37.358Z,101849.76
2019-01-10T01:48:38.501Z,101853.67
2019-01-10T01:49:39.624Z,101848.89
2019-01-10T01:50:40.750Z,101856.45
2019-01-10T01:51:42.024Z,101859.61
2019-01-10T01:52:43.692Z,101855.59
2019-01-10T01:53:44.798Z,101855.23
2019-01-10T01:54:46.027Z,101850.23
2019-01-10T01:55:47.154Z,101847.19
2019-01-10T01:56:48.291Z,101848.16
2019-01-10T01:57:49.517Z,101848.05
2019-01-10T01:58:50.638Z,101851.20
2019-01-10T01:59:51.782Z,101844.14
2019-01-10T02:00:52.953Z,101842.34
2019-01-10T02:01:54.242Z,101844.51
2019-01-10T02:02:55.389Z,101845.02
2019-01-10T02:03:56.530Z,101844.14
2019-01-10T02:04:57.776Z,101850.84
2019-01-10T02:05:58.898Z,101849.03
2019-01-10T02:07:00.054Z,101850.84
2019-01-10T02:08:01.299Z,101849.65
2019-01-10T02:09:04.333Z,101845.62
2019-01-10T02:10:11.978Z,101842.45
2019-01-10T02:11:13.218Z,101845.12
2019-01-10T02:12:14.399Z,101843.92
2019-01-10T02:13:16.951Z,101837.23
2019-01-10T02:14:18.270Z,101838.57
2019-01-10T02:15:19.516Z,101843.42
2019-01-10T02:16:20.640Z,101843.42
2019-01-10T02:17:21.790Z,101841.11
2019-01-10T02:18:22.918Z,101843.42
2019-01-10T02:19:24.154Z,101843.42
2019-01-10T02:20:25.276Z,101840.74
2019-01-10T02:21:26.417Z,101839.41
2019-01-10T02:22:27.551Z,101839.91
2019-01-10T02:23:28.972Z,101840.37
2019-01-10T02:24:30.106Z,101839.05
2019-01-10T02:25:31.333Z,101838.20
2019-01-10T02:26:32.778Z,101838.20
2019-01-10T02:27:33.919Z,101831.98
2019-01-10T02:28:35.059Z,101826.77
2019-01-10T02:29:36.299Z,101825.79
2019-01-10T02:30:42.281Z,101825.42
2019-01-10T02:31:40.483Z,101820.91
2019-01-10T02:32:41.726Z,101826.27
2019-01-10T02:33:42.848Z,101824.92
2019-01-10T02:34:43.988Z,101824.09
2019-01-10T02:35:45.114Z,101826.27
2019-01-10T02:36:46.257Z,101822.24
2019-01-10T02:37:47.583Z,101822.24
2019-01-10T02:38:48.806Z,101816.52
2019-01-10T02:39:49.958Z,101818.22
2019-01-10T02:40:51.087Z,101818.22
2019-01-10T02:41:52.327Z,101812.03
2019-01-10T02:42:53.502Z,101816.89
2019-01-10T02:43:54.635Z,101815.08
2019-01-10T02:44:55.765Z,101815.08
2019-01-10T02:45:56.903Z,101804.83
2019-01-10T02:46:58.028Z,101808.02
2019-01-10T02:47:59.233Z,101802.16
2019-01-10T02:49:00.357Z,101800.45
2019-01-10T02:50:02.886Z,101798.13
2019-01-10T02:51:04.010Z,101795.45
2019-01-10T02:52:05.137Z,101797.16
2019-01-10T02:53:06.415Z,101796.32
2019-01-10T02:54:07.541Z,101791.80
2019-01-10T02:55:09.067Z,101791.33
2019-01-10T02:56:10.199Z,101795.81
2019-01-10T02:57:11.329Z,101790.97
2019-01-10T02:58:12.489Z,101789.98
2019-01-10T02:59:13.718Z,101781.95
2019-01-10T03:00:20.662Z,101788.14
2019-01-10T03:01:21.791Z,101781.95
2019-01-10T03:02:22.916Z,101772.57
2019-01-10T03:03:24.050Z,101772.06
2019-01-10T03:04:25.255Z,101768.05
2019-01-10T03:05:26.568Z,101764.03
2019-01-10T03:06:27.679Z,101761.34
2019-01-10T03:07:28.798Z,101762.33
2019-01-10T03:08:30.043Z,101764.03
2019-01-10T03:09:31.157Z,101765.87
2019-01-10T03:10:32.260Z,101766.23
2019-01-10T03:11:33.376Z,101770.73
2019-01-10T03:12:34.487Z,101764.53
2019-01-10T03:13:36.808Z,101771.59
2019-01-10T03:14:38.329Z,101777.56
2019-01-10T03:15:39.443Z,101777.93
2019-01-10T03:16:40.558Z,101776.59
2019-01-10T03:17:41.668Z,101777.06
2019-01-10T03:18:42.891Z,101768.20
2019-01-10T03:19:44.000Z,101771.70
2019-01-10T03:20:45.104Z,101769.02
2019-01-10T03:21:46.212Z,101768.66
2019-01-10T03:22:47.323Z,101768.20
2019-01-10T03:23:48.462Z,101768.66
2019-01-10T03:24:49.590Z,101772.69
2019-01-10T03:25:50.946Z,101775.73
2019-01-10T03:26:52.149Z,101771.34
2019-01-10T03:27:53.354Z,101769.17
2019-01-10T03:28:54.478Z,101770.00
2019-01-10T03:29:55.578Z,101771.34
2019-01-10T03:30:59.263Z,101766.97
2019-01-10T03:32:00.369Z,101765.63
2019-01-10T03:33:01.481Z,101766.97
2019-01-10T03:34:03.196Z,101766.13
2019-01-10T03:35:06.400Z,101761.61
2019-01-10T03:36:07.502Z,101760.41
2019-01-10T03:37:08.611Z,101758.56
2019-01-10T03:38:09.718Z,101755.53
2019-01-10T03:39:10.848Z,101754.69
2019-01-10T03:40:17.434Z,101753.47
2019-01-10T03:41:18.543Z,101752.13
2019-01-10T03:42:19.654Z,101747.75
2019-01-10T03:43:20.855Z,101754.44
2019-01-10T03:44:22.112Z,101749.09
2019-01-10T03:45:23.214Z,101750.42
2019-01-10T03:46:24.321Z,101743.37
2019-01-10T03:47:25.432Z,101737.54
2019-01-10T03:48:26.563Z,101737.54
2019-01-10T03:49:27.707Z,101739.34
2019-01-10T03:50:28.822Z,101745.07
2019-01-10T03:51:29.933Z,101738.87
2019-01-10T03:52:31.051Z,101738.37
2019-01-10T03:53:32.155Z,101735.33
2019-01-10T03:54:33.301Z,101733.02
2019-01-10T03:55:34.557Z,101732.66
2019-01-10T03:56:35.718Z,101730.34
2019-01-10T03:57:36.818Z,101732.18
2019-01-10T03:58:37.937Z,101728.63
2019-01-10T03:59:39.083Z,101729.98
2019-01-10T04:00:40.187Z,101736.05
2019-01-10T04:01:41.294Z,101733.52
2019-01-10T04:02:42.512Z,101729.98
2019-01-10T04:03:43.618Z,101723.64
2019-01-10T04:04:44.731Z,101724.98
2019-01-10T04:05:45.844Z,101724.15
2019-01-10T04:06:46.958Z,101725.84
2019-01-10T04:07:48.265Z,101721.83
2019-01-10T04:08:49.370Z,101721.32
2019-01-10T04:09:50.599Z,101721.32
2019-01-10T04:10:51.708Z,101716.83
2019-01-10T04:11:52.812Z,101705.76
2019-01-10T04:12:53.923Z,101707.31
2019-01-10T04:13:57.624Z,101708.29
2019-01-10T04:14:58.500Z,101707.31
2019-01-10T04:15:59.620Z,101706.33
2019-01-10T04:17:00.896Z,101701.95
2019-01-10T04:18:02.014Z,101704.98
2019-01-10T04:19:03.125Z,101700.97
2019-01-10T04:20:06.817Z,101699.63
2019-01-10T04:21:16.930Z,101702.31
2019-01-10T04:22:10.927Z,101702.31
2019-01-10T04:23:12.035Z,101695.14
2019-01-10T04:24:13.181Z,101697.31
2019-01-10T04:25:14.626Z,101693.30
2019-01-10T04:26:15.740Z,101688.92
2019-01-10T04:27:16.849Z,101695.14
2019-01-10T04:28:19.093Z,101691.13
2019-01-10T04:29:20.198Z,101689.78
2019-01-10T04:30:21.318Z,101689.28
2019-01-10T04:31:22.526Z,101683.09
2019-01-10T04:32:23.741Z,101686.23
2019-01-10T04:33:24.849Z,101678.56
2019-01-10T04:34:25.958Z,101683.92
2019-01-10T04:35:27.114Z,101681.24
2019-01-10T04:36:30.187Z,101675.88
2019-01-10T04:37:31.238Z,101679.91
2019-01-10T04:38:32.355Z,101675.88
2019-01-10T04:39:33.467Z,101676.24
2019-01-10T04:40:34.594Z,101668.20
2019-01-10T04:41:35.702Z,101670.05
2019-01-10T04:42:36.924Z,101674.55
2019-01-10T04:43:38.128Z,101673.56
2019-01-10T04:44:39.253Z,101673.56
2019-01-10T04:45:40.581Z,101669.55
2019-01-10T04:46:41.799Z,101666.87
2019-01-10T04:47:42.919Z,101664.70
2019-01-10T04:48:44.033Z,101665.05
2019-01-10T04:49:45.146Z,101659.34
2019-01-10T04:50:46.270Z,101664.19
2019-01-10T04:51:47.489Z,101661.52
2019-01-10T04:52:48.593Z,101665.05
2019-01-10T04:53:49.715Z,101658.47
2019-01-10T04:54:50.827Z,101656.16
2019-01-10T04:55:51.958Z,101661.03
2019-01-10T04:56:53.046Z,101656.16
2019-01-10T04:57:54.158Z,101653.00
2019-01-10T04:58:55.514Z,101653.47
2019-01-10T04:59:56.623Z,101657.49
2019-01-10T05:00:57.742Z,101649.45
2019-01-10T05:01:58.850Z,101651.78
2019-01-10T05:02:59.957Z,101648.98
2019-01-10T05:04:01.058Z,101647.14
2019-01-10T05:05:02.435Z,101645.80
2019-01-10T05:06:03.684Z,101652.85
2019-01-10T05:07:04.787Z,101645.80
2019-01-10T05:08:06.006Z,101649.34
2019-01-10T05:09:07.113Z,101647.14
2019-01-10T05:10:09.724Z,101636.31
2019-01-10T05:11:11.410Z,101643.83
2019-01-10T05:12:12.861Z,101636.31
2019-01-10T05:13:14.077Z,101631.06
2019-01-10T05:14:16.726Z,101635.95
2019-01-10T05:15:18.198Z,101631.06
2019-01-10T05:16:19.425Z,101636.31
2019-01-10T05:17:20.541Z,101635.44
2019-01-10T05:18:21.660Z,101633.27
2019-01-10T05:19:22.768Z,101632.76
2019-01-10T05:20:23.872Z,101630.08
2019-01-10T05:21:25.013Z,101621.59
2019-01-10T05:22:26.228Z,101628.75
2019-01-10T05:23:27.339Z,101624.37
2019-01-10T05:24:28.465Z,101625.23
2019-01-10T05:25:29.683Z,101625.23
2019-01-10T05:26:30.852Z,101624.37
2019-01-10T05:27:31.987Z,101624.37
2019-01-10T05:28:33.176Z,101620.70
2019-01-10T05:29:34.396Z,101619.01
2019-01-10T05:30:35.593Z,101616.84
2019-01-10T05:31:36.730Z,101612.67
2019-01-10T05:32:37.837Z,101614.98
2019-01-10T05:33:38.962Z,101608.30
2019-01-10T05:34:40.070Z,101609.63
2019-01-10T05:35:41.287Z,101604.42
2019-01-10T05:36:42.442Z,101603.44
2019-01-10T05:37:43.650Z,101605.25
2019-01-10T05:38:44.869Z,101611.48
2019-01-10T05:39:47.730Z,101603.91
2019-01-10T05:40:49.205Z,101601.74
2019-01-10T05:41:50.614Z,101597.37
2019-01-10T05:42:51.820Z,101597.84
2019-01-10T05:43:53.058Z,101596.65
2019-01-10T05:44:54.260Z,101590.78
2019-01-10T05:45:55.465Z,101593.11
2019-01-10T05:46:56.718Z,101594.80
2019-01-10T05:47:57.938Z,101590.78
2019-01-10T05:48:59.198Z,101585.94
2019-01-10T05:50:00.478Z,101587.75
2019-01-10T05:51:01.733Z,101582.39
2019-01-10T05:52:03.175Z,101580.43
2019-01-10T05:53:04.387Z,101582.27
2019-01-10T05:54:05.603Z,101580.43
2019-01-10T05:55:09.715Z,101582.27
2019-01-10T05:56:15.745Z,101578.73
2019-01-10T05:57:14.088Z,101585.78
2019-01-10T05:58:15.312Z,101576.05
2019-01-10T05:59:16.529Z,101572.03
2019-01-10T06:00:23.577Z,101578.73
2019-01-10T06:01:24.944Z,101578.38
2019-01-10T06:02:26.170Z,101576.05
2019-01-10T06:03:27.382Z,101577.90
2019-01-10T06:04:28.600Z,101575.34
2019-01-10T06:05:29.821Z,101578.52
2019-01-10T06:06:30.922Z,101577.66
2019-01-10T06:07:32.149Z,101571.94
2019-01-10T06:08:33.358Z,101572.30
2019-01-10T06:09:34.576Z,101567.45
2019-01-10T06:10:35.681Z,101570.96
2019-01-10T06:11:36.894Z,101575.34
2019-01-10T06:12:38.163Z,101574.23
2019-01-10T06:13:39.382Z,101568.27
2019-01-10T06:14:40.609Z,101569.33
2019-01-10T06:15:41.822Z,101563.71
2019-01-10T06:16:45.139Z,101558.95
2019-01-10T06:17:46.170Z,101558.53
2019-01-10T06:18:47.384Z,101554.48
2019-01-10T06:19:48.600Z,101552.72
2019-01-10T06:20:49.816Z,101561.59
2019-01-10T06:21:51.032Z,101559.36
2019-01-10T06:22:52.262Z,101511.88
2019-01-10T06:23:53.379Z,101560.09
2019-01-10T06:24:54.601Z,101544.48
2019-01-10T06:25:55.835Z,101544.32
2019-01-10T06:26:57.047Z,101542.43
2019-01-10T06:27:58.275Z,101540.54
2019-01-10T06:28:59.486Z,101543.53
2019-01-10T06:30:00.699Z,101539.78
2019-01-10T06:31:01.914Z,101537.41
2019-01-10T06:32:03.125Z,101547.46
2019-01-10T06:33:04.355Z,101542.01
2019-01-10T06:34:06.599Z,101539.98
2019-01-10T06:35:07.784Z,101542.11
2019-01-10T06:36:09.001Z,101533.36
2019-01-10T06:37:10.309Z,101538.99
2019-01-10T06:38:11.482Z,101532.70
2019-01-10T06:39:12.593Z,101538.05
2019-01-10T06:40:19.149Z,101530.92
2019-01-10T06:41:20.364Z,101533.03
2019-01-10T06:42:21.585Z,101530.77
2019-01-10T06:43:22.735Z,101532.69
2019-01-10T06:44:23.853Z,101530.55
2019-01-10T06:45:25.070Z,101527.92
2019-01-10T06:46:26.187Z,101521.78
2019-01-10T06:47:27.302Z,101526.35
2019-01-10T06:48:28.551Z,101523.88
2019-01-10T06:49:29.768Z,101525.45
2019-01-10T06:50:30.987Z,101523.30
2019-01-10T06:51:32.204Z,101521.83
2019-01-10T06:52:33.427Z,101517.16
2019-01-10T06:53:34.727Z,101524.41
2019-01-10T06:54:35.946Z,101517.92
2019-01-10T06:55:37.167Z,101521.30
2019-01-10T06:56:38.381Z,101509.56
2019-01-10T06:57:39.595Z,101521.36
2019-01-10T06:58:40.724Z,101518.03
2019-01-10T06:59:41.938Z,101510.31
2019-01-10T07:00:43.048Z,101508.68
2019-01-10T07:01:44.270Z,101506.69
2019-01-10T07:02:46.087Z,101508.38
2019-01-10T07:03:47.353Z,101505.05
2019-01-10T07:04:48.566Z,101500.89
2019-01-10T07:05:50.270Z,101503.41
2019-01-10T07:06:51.487Z,101496.69
2019-01-10T07:07:56.763Z,101501.42
2019-01-10T07:08:55.752Z,101499.08
2019-01-10T07:09:56.854Z,101495.41
2019-01-10T07:10:58.166Z,101494.41
2019-01-10T07:11:59.377Z,101489.03
2019-01-10T07:13:00.592Z,101490.72
2019-01-10T07:14:01.714Z,101495.63
2019-01-10T07:15:03.633Z,101487.08
2019-01-10T07:16:04.745Z,101490.11
2019-01-10T07:17:05.851Z,101482.91
2019-01-10T07:18:07.009Z,101484.25
2019-01-10T07:19:08.164Z,101477.40
2019-01-10T07:20:10.369Z,101471.51
2019-01-10T07:21:11.498Z,101472.38
2019-01-10T07:22:13.410Z,101476.23
2019-01-10T07:23:14.510Z,101469.03
2019-01-10T07:24:15.664Z,101471.21
2019-01-10T07:25:16.982Z,101461.80
2019-01-10T07:26:18.122Z,101464.84
2019-01-10T07:27:19.630Z,101464.36
2019-01-10T07:28:23.605Z,101460.32
2019-01-10T07:29:24.791Z,101458.98
2019-01-10T07:30:35.488Z,101452.61
2019-01-10T07:31:29.303Z,101452.26
2019-01-10T07:32:30.515Z,101446.02
2019-01-10T07:33:32.303Z,101447.23
2019-01-10T07:34:34.670Z,101447.36
2019-01-10T07:35:35.774Z,101449.05
2019-01-10T07:36:36.894Z,101450.05
2019-01-10T07:37:37.998Z,101440.64
2019-01-10T07:38:42.710Z,101446.02
2019-01-10T07:39:43.854Z,101445.19
2019-01-10T07:40:44.960Z,101441.16
2019-01-10T07:41:46.079Z,101442.50
2019-01-10T07:42:47.184Z,101435.91
2019-01-10T07:43:48.291Z,101438.25
2019-01-10T07:44:49.441Z,101439.95
2019-01-10T07:45:50.555Z,101437.91
2019-01-10T07:46:51.759Z,101429.02
2019-01-10T07:47:52.871Z,101434.04
2019-01-10T07:48:54.084Z,101432.70
2019-01-10T07:49:57.034Z,101429.28
2019-01-10T07:50:58.150Z,101428.89
2019-01-10T07:51:59.251Z,101422.83
2019-01-10T07:53:00.462Z,101423.34
2019-01-10T07:54:01.575Z,101416.27
2019-01-10T07:55:04.019Z,101416.06
2019-01-10T07:56:05.126Z,101410.85
2019-01-10T07:57:06.237Z,101410.85
2019-01-10T07:58:07.443Z,101414.53
2019-01-10T07:59:08.545Z,101414.19
2019-01-10T08:00:12.978Z,101409.46
2019-01-10T08:01:14.090Z,101413.49
2019-01-10T08:02:15.203Z,101408.59
2019-01-10T08:03:16.315Z,101402.53
2019-01-10T08:04:17.527Z,101399.36
2019-01-10T08:05:19.044Z,101390.09
2019-01-10T08:06:20.149Z,101394.98
2019-01-10T08:07:21.258Z,101391.95
2019-01-10T08:08:22.470Z,101391.77
2019-01-10T08:09:23.688Z,101391.43
2019-01-10T08:10:24.943Z,101392.29
2019-01-10T08:11:26.055Z,101385.70
2019-01-10T08:12:27.161Z,101387.91
2019-01-10T08:13:28.264Z,101374.61
2019-01-10T08:14:29.373Z,101377.30
2019-01-10T08:15:30.603Z,101381.67
2019-01-10T08:16:31.706Z,101380.33
2019-01-10T08:17:32.809Z,101372.27
2019-01-10T08:18:33.918Z,101370.45
2019-01-10T08:19:35.031Z,101361.17
2019-01-10T08:20:36.176Z,101365.20
2019-01-10T08:21:37.303Z,101355.80
2019-01-10T08:22:38.401Z,101358.48
2019-01-10T08:23:39.511Z,101355.80
2019-01-10T08:24:40.632Z,101359.83
2019-01-10T08:25:41.951Z,101351.42
2019-01-10T08:26:43.076Z,101348.25
2019-01-10T08:27:44.197Z,101346.05
2019-01-10T08:28:45.300Z,101343.70
2019-01-10T08:29:46.413Z,101333.61
2019-01-10T08:30:47.665Z,101331.27
2019-01-10T08:31:48.778Z,101332.27
2019-01-10T08:32:50.000Z,101324.69
2019-01-10T08:33:51.110Z,101322.00
2019-01-10T08:34:52.321Z,101320.30
2019-01-10T08:35:53.449Z,101319.83
2019-01-10T08:36:54.565Z,101315.80
2019-01-10T08:37:55.677Z,101327.89
2019-01-10T08:38:56.790Z,101324.34
2019-01-10T08:39:57.900Z,101321.17
2019-01-10T08:40:59.025Z,101314.10
2019-01-10T08:42:00.136Z,101317.14
2019-01-10T08:43:01.551Z,101314.59
2019-01-10T08:44:02.866Z,101274.55
2019-01-10T08:45:06.394Z,101314.94
2019-01-10T08:46:07.827Z,101317.14
2019-01-10T08:47:08.940Z,101310.08
2019-01-10T08:48:10.052Z,101317.63
2019-01-10T08:49:11.168Z,101312.59
2019-01-10T08:50:15.381Z,101307.73
2019-01-10T08:51:16.699Z,101309.08
2019-01-10T08:52:17.808Z,101302.36
2019-01-10T08:53:19.022Z,101300.02
2019-01-10T08:54:20.133Z,101300.02
2019-01-10T08:55:21.540Z,101295.98
2019-01-10T08:56:22.860Z,101294.98
2019-01-10T08:57:23.985Z,101290.96
2019-01-10T08:58:25.196Z,101293.16
2019-01-10T08:59:26.304Z,101291.95
2019-01-10T09:00:27.512Z,101290.61
2019-01-10T09:01:28.732Z,101284.76
2019-01-10T09:02:29.844Z,101283.89
2019-01-10T09:03:30.961Z,101285.23
2019-01-10T09:04:32.178Z,101277.66
2019-01-10T09:05:33.290Z,101280.86
2019-01-10T09:06:34.542Z,101277.66
2019-01-10T09:07:35.972Z,101282.06
2019-01-10T09:08:37.084Z,101269.12
2019-01-10T09:09:38.197Z,101273.63
2019-01-10T09:10:40.588Z,101270.80
2019-01-10T09:11:41.847Z,101272.49
2019-01-10T09:12:43.159Z,101272.49
2019-01-10T09:13:44.282Z,101268.47
2019-01-10T09:14:45.392Z,101268.33
2019-01-10T09:15:46.507Z,101259.41
2019-01-10T09:16:47.730Z,101257.92
2019-01-10T09:17:48.858Z,101260.09
2019-01-10T09:18:49.974Z,101251.69
2019-01-10T09:19:51.084Z,101251.69
2019-01-10T09:20:52.202Z,101243.97
2019-01-10T09:21:53.333Z,101246.66
2019-01-10T09:22:54.459Z,101232.40
2019-01-10T09:23:55.571Z,101242.28
2019-01-10T09:24:56.793Z,101231.53
2019-01-10T09:25:57.936Z,101236.43
2019-01-10T09:26:59.100Z,101242.14
2019-01-10T09:28:00.214Z,101234.56
2019-01-10T09:29:01.330Z,101220.75
2019-01-10T09:30:04.542Z,101233.73
2019-01-10T09:31:05.648Z,101228.84
2019-01-10T09:32:06.800Z,101230.53
2019-01-10T09:33:07.912Z,101230.88
2019-01-10T09:34:09.024Z,101236.25
2019-01-10T09:35:10.437Z,101229.19
2019-01-10T09:36:11.656Z,101226.85
2019-01-10T09:37:12.959Z,101221.48
2019-01-10T09:38:14.258Z,101224.16
2019-01-10T09:39:15.400Z,101221.83
2019-01-10T09:40:18.414Z,101220.99
2019-01-10T09:41:19.531Z,101211.42
2019-01-10T09:42:20.684Z,101213.77
2019-01-10T09:43:21.799Z,101203.01
2019-01-10T09:44:22.928Z,101202.53
2019-01-10T09:45:24.120Z,101203.36
2019-01-10T09:46:25.243Z,101201.53
2019-01-10T09:47:26.486Z,101197.16
2019-01-10T09:48:27.596Z,101194.30
2019-01-10T09:49:28.713Z,101194.81
2019-01-10T09:50:29.828Z,101196.98
2019-01-10T09:51:30.936Z,101194.30
2019-01-10T09:52:32.219Z,101188.09
2019-01-10T09:53:33.333Z,101193.30
2019-01-10T09:54:34.448Z,101188.78
2019-01-10T09:55:35.660Z,101183.55
2019-01-10T09:56:36.880Z,101180.86
2019-01-10T09:57:38.026Z,101175.83
2019-01-10T09:58:39.145Z,101177.17
2019-01-10T09:59:40.261Z,101171.80
2019-01-10T10:00:41.483Z,101168.11
2019-01-10T10:01:42.597Z,101175.17
2019-01-10T10:02:43.820Z,101167.77
2019-01-10T10:03:45.073Z,101169.97
2019-01-10T10:04:46.356Z,101162.39
2019-01-10T10:05:47.480Z,101158.70
2019-01-10T10:06:48.596Z,101157.36
2019-01-10T10:07:49.741Z,101150.64
2019-01-10T10:08:50.847Z,101143.92
2019-01-10T10:09:52.065Z,101150.16
2019-01-10T10:10:53.176Z,101142.09
2019-01-10T10:11:54.297Z,101145.27
2019-01-10T10:12:55.576Z,101138.55
2019-01-10T10:13:56.695Z,101131.00
2019-01-10T10:14:57.912Z,101135.20
2019-01-10T10:15:59.031Z,101123.62
2019-01-10T10:17:00.253Z,101118.73
2019-01-10T10:18:01.579Z,101109.33
2019-01-10T10:19:02.697Z,101114.70
2019-01-10T10:20:07.408Z,101108.33
2019-01-10T10:21:08.527Z,101108.33
2019-01-10T10:22:09.740Z,101104.64
2019-01-10T10:23:11.032Z,101102.30
2019-01-10T10:24:12.147Z,101103.63
2019-01-10T10:25:13.259Z,101103.15
2019-01-10T10:26:14.483Z,101095.91
2019-01-10T10:27:15.728Z,101087.37
2019-01-10T10:28:16.848Z,101096.26
2019-01-10T10:29:17.963Z,101087.37
2019-01-10T10:30:19.475Z,101085.51
2019-01-10T10:31:20.684Z,101085.85
2019-01-10T10:32:21.800Z,101084.16
2019-01-10T10:33:22.932Z,101077.45
2019-01-10T10:34:24.044Z,101068.89
2019-01-10T10:35:25.251Z,101064.86
2019-01-10T10:36:26.370Z,101072.41
2019-01-10T10:37:27.488Z,101070.59
2019-01-10T10:38:28.641Z,101063.86
2019-01-10T10:39:29.752Z,101066.41
2019-01-10T10:40:31.192Z,101062.86
2019-01-10T10:41:32.414Z,101063.72
2019-01-10T10:42:33.622Z,101051.14
2019-01-10T10:43:34.748Z,101045.25
2019-01-10T10:44:35.929Z,101047.45
2019-01-10T10:45:37.071Z,101044.42
2019-01-10T10:46:38.291Z,101045.62
2019-01-10T10:47:39.505Z,101036.70
2019-01-10T10:48:40.765Z,101035.02
2019-01-10T10:49:41.877Z,101039.39
2019-01-10T10:50:43.091Z,101035.84
2019-01-10T10:51:44.200Z,101033.30
2019-01-10T10:52:45.516Z,101024.89
2019-01-10T10:53:46.661Z,101024.89
2019-01-10T10:54:47.779Z,101022.34
2019-01-10T10:55:48.992Z,101015.63
2019-01-10T10:56:50.099Z,101016.63
2019-01-10T10:57:51.214Z,101011.77
2019-01-10T10:58:52.349Z,101005.05
2019-01-10T10:59:53.454Z,101007.40
2019-01-10T11:00:54.570Z,101012.78
2019-01-10T11:01:55.683Z,101013.27
2019-01-10T11:02:57.100Z,101013.27
2019-01-10T11:03:58.524Z,101010.58
2019-01-10T11:04:59.645Z,101004.38
2019-01-10T11:06:00.865Z,101005.20
2019-01-10T11:07:01.977Z,100998.48
2019-01-10T11:08:03.089Z,101002.85
2019-01-10T11:09:09.229Z,100996.66
2019-01-10T11:10:12.235Z,101000.16
2019-01-10T11:11:13.346Z,100994.79
2019-01-10T11:12:14.561Z,100988.07
2019-01-10T11:13:15.980Z,100981.02
2019-01-10T11:14:17.101Z,100970.27
2019-01-10T11:15:18.210Z,100969.26
2019-01-10T11:16:19.324Z,100957.69
2019-01-10T11:17:20.432Z,100958.51
2019-01-10T11:18:21.546Z,100957.16
2019-01-10T11:19:22.789Z,100952.80
2019-01-10T11:20:23.895Z,100958.17
2019-01-10T11:21:25.010Z,100948.94
2019-01-10T11:22:26.121Z,100944.91
2019-01-10T11:23:27.240Z,100937.67
2019-01-10T11:24:28.367Z,100940.36
2019-01-10T11:25:29.476Z,100939.88
2019-01-10T11:26:30.604Z,100939.36
2019-01-10T11:27:31.740Z,100940.22
2019-01-10T11:28:32.857Z,100926.44
2019-01-10T11:29:33.978Z,100926.27
2019-01-10T11:30:35.085Z,100922.75
2019-01-10T11:31:36.199Z,100912.34
2019-01-10T11:32:37.312Z,100916.86
2019-01-10T11:33:38.542Z,100910.13
2019-01-10T11:34:39.777Z,100906.10
2019-01-10T11:35:40.884Z,100902.93
2019-01-10T11:36:42.007Z,100903.76
2019-01-10T11:37:43.117Z,100905.09
2019-01-10T11:38:45.279Z,100897.03
2019-01-10T11:39:46.464Z,100894.87